createdAt,value
2017-12-30T00:00:12.827Z,99881
2017-12-30T00:02:41.694Z,99887
2017-12-30T00:05:09.758Z,99868
2017-12-30T00:07:38.263Z,99880
2017-12-30T00:10:06.330Z,99864
2017-12-30T00:12:34.411Z,99882
2017-12-30T00:15:02.483Z,99872
2017-12-30T00:17:31.339Z,99880
2017-12-30T00:19:59.548Z,99872
2017-12-30T00:22:27.994Z,99882
2017-12-30T00:24:56.094Z,99883
2017-12-30T00:27:24.167Z,99886
2017-12-30T00:29:52.216Z,99884
2017-12-30T00:32:20.288Z,99887
2017-12-30T00:34:48.342Z,99880
2017-12-30T00:37:16.447Z,99888
2017-12-30T00:39:44.702Z,99888
2017-12-30T00:42:14.138Z,99896
2017-12-30T00:44:42.251Z,99898
2017-12-30T00:47:10.323Z,99897
2017-12-30T00:49:38.431Z,99905
2017-12-30T00:52:06.601Z,99889
2017-12-30T00:54:34.685Z,99882
2017-12-30T00:57:02.846Z,99893
2017-12-30T00:59:30.918Z,99885
2017-12-30T01:01:58.984Z,99896
2017-12-30T01:04:27.069Z,99894
2017-12-30T01:06:55.117Z,99897
2017-12-30T01:09:23.181Z,99888
2017-12-30T01:11:51.251Z,99883
2017-12-30T01:14:19.323Z,99897
2017-12-30T01:16:47.382Z,99895
2017-12-30T01:19:15.443Z,99887
2017-12-30T01:21:43.502Z,99875
2017-12-30T01:24:11.563Z,99878
2017-12-30T01:26:39.618Z,99881
2017-12-30T01:29:08.460Z,99883
2017-12-30T01:31:36.563Z,99882
2017-12-30T01:34:04.639Z,99882
2017-12-30T01:36:32.707Z,99882
2017-12-30T01:39:00.786Z,99883
2017-12-30T01:41:28.842Z,99884
2017-12-30T01:43:56.896Z,99882
2017-12-30T01:46:24.962Z,99886
2017-12-30T01:49:03.986Z,99877
2017-12-30T01:51:32.040Z,99872
2017-12-30T01:54:00.104Z,99876
2017-12-30T01:56:28.176Z,99868
2017-12-30T01:58:56.284Z,99879
2017-12-30T02:01:24.346Z,99883
2017-12-30T02:03:52.413Z,99881
2017-12-30T02:06:20.475Z,99888
2017-12-30T02:08:48.521Z,99880
2017-12-30T02:11:16.598Z,99885
2017-12-30T02:13:44.668Z,99894
2017-12-30T02:16:12.726Z,99882
2017-12-30T02:18:40.862Z,99891
2017-12-30T02:21:09.593Z,99894
2017-12-30T02:23:37.642Z,99889
2017-12-30T02:26:06.495Z,99886
2017-12-30T02:28:34.558Z,99881
2017-12-30T02:31:02.638Z,99883
2017-12-30T02:33:30.685Z,99893
2017-12-30T02:35:58.752Z,99905
2017-12-30T02:38:26.807Z,99892
2017-12-30T02:40:54.905Z,99896
2017-12-30T02:43:22.970Z,99887
2017-12-30T02:45:51.042Z,99885
2017-12-30T02:48:19.100Z,99872
2017-12-30T02:50:47.199Z,99885
2017-12-30T02:53:15.269Z,99889
2017-12-30T02:55:43.331Z,99880
2017-12-30T02:58:11.403Z,99896
2017-12-30T03:00:39.479Z,99890
2017-12-30T03:03:07.648Z,99894
2017-12-30T03:05:35.700Z,99894
2017-12-30T03:08:04.472Z,99878
2017-12-30T03:10:32.529Z,99883
2017-12-30T03:13:00.882Z,99887
2017-12-30T03:15:29.715Z,99894
2017-12-30T03:17:57.814Z,99892
2017-12-30T03:20:25.878Z,99883
2017-12-30T03:22:53.942Z,99876
2017-12-30T03:25:22.005Z,99867
2017-12-30T03:27:50.058Z,99863
2017-12-30T03:30:18.169Z,99867
2017-12-30T03:32:46.242Z,99875
2017-12-30T03:35:14.576Z,99882
2017-12-30T03:37:42.636Z,99874
2017-12-30T03:40:10.759Z,99875
2017-12-30T03:42:38.863Z,99864
2017-12-30T03:45:07.714Z,99865
2017-12-30T03:47:35.775Z,99854
2017-12-30T03:50:03.839Z,99864
2017-12-30T03:52:31.909Z,99850
2017-12-30T03:54:59.958Z,99851
2017-12-30T03:57:28.043Z,99853
2017-12-30T03:59:56.101Z,99850
2017-12-30T04:02:24.149Z,99852
2017-12-30T04:04:52.209Z,99853
2017-12-30T04:07:21.070Z,99853
2017-12-30T04:09:49.139Z,99855
2017-12-30T04:12:17.192Z,99863
2017-12-30T04:14:45.259Z,99870
2017-12-30T04:17:13.322Z,99864
2017-12-30T04:19:41.393Z,99862
2017-12-30T04:22:09.449Z,99868
2017-12-30T04:24:37.505Z,99868
2017-12-30T04:27:05.550Z,99854
2017-12-30T04:29:34.385Z,99850
2017-12-30T04:32:02.486Z,99845
2017-12-30T04:34:30.549Z,99856
2017-12-30T04:36:58.606Z,99858
2017-12-30T04:39:26.669Z,99835
2017-12-30T04:41:55.301Z,99840
2017-12-30T04:44:24.161Z,99835
2017-12-30T04:46:52.337Z,99838
2017-12-30T04:49:20.403Z,99832
2017-12-30T04:51:48.450Z,99837
2017-12-30T04:54:16.519Z,99839
2017-12-30T04:56:44.564Z,99834
2017-12-30T04:59:13.389Z,99841
2017-12-30T05:01:41.468Z,99849
2017-12-30T05:04:09.736Z,99854
2017-12-30T05:06:37.790Z,99838
2017-12-30T05:09:05.899Z,99832
2017-12-30T05:11:33.954Z,99831
2017-12-30T05:14:02.500Z,99837
2017-12-30T05:16:30.563Z,99831
2017-12-30T05:18:58.695Z,99837
2017-12-30T05:21:26.858Z,99833
2017-12-30T05:23:54.909Z,99836
2017-12-30T05:26:22.965Z,99836
2017-12-30T05:28:51.017Z,99828
2017-12-30T05:31:19.837Z,99836
2017-12-30T05:33:47.900Z,99841
2017-12-30T05:36:15.996Z,99854
2017-12-30T05:38:44.075Z,99863
2017-12-30T05:41:12.132Z,99857
2017-12-30T05:43:40.279Z,99860
2017-12-30T05:46:08.362Z,99853
2017-12-30T05:48:36.417Z,99873
2017-12-30T05:51:04.486Z,99878
2017-12-30T05:53:32.546Z,99875
2017-12-30T05:56:00.622Z,99874
2017-12-30T05:58:28.700Z,99868
2017-12-30T06:00:56.766Z,99861
2017-12-30T06:03:24.829Z,99861
2017-12-30T06:05:53.652Z,99856
2017-12-30T06:08:21.748Z,99862
2017-12-30T06:10:49.803Z,99850
2017-12-30T06:13:17.857Z,99857
2017-12-30T06:15:45.923Z,99858
2017-12-30T06:18:13.984Z,99857
2017-12-30T06:20:42.048Z,99842
2017-12-30T06:23:10.113Z,99851
2017-12-30T06:25:38.236Z,99838
2017-12-30T06:28:06.705Z,99842
2017-12-30T06:30:34.775Z,99848
2017-12-30T06:33:02.876Z,99850
2017-12-30T06:35:31.195Z,99850
2017-12-30T06:37:59.302Z,99858
2017-12-30T06:40:27.479Z,99864
2017-12-30T06:42:55.528Z,99858
2017-12-30T06:45:23.628Z,99856
2017-12-30T06:47:51.679Z,99859
2017-12-30T06:50:19.739Z,99871
2017-12-30T06:52:47.790Z,99876
2017-12-30T06:55:15.889Z,99859
2017-12-30T06:57:43.959Z,99862
2017-12-30T07:00:12.020Z,99865
2017-12-30T07:02:40.079Z,99869
2017-12-30T07:05:08.154Z,99852
2017-12-30T07:07:36.219Z,99861
2017-12-30T07:10:04.284Z,99851
2017-12-30T07:12:32.358Z,99850
2017-12-30T07:15:00.413Z,99860
2017-12-30T07:17:28.478Z,99851
2017-12-30T07:19:56.543Z,99850
2017-12-30T07:22:25.370Z,99832
2017-12-30T07:24:53.429Z,99838
2017-12-30T07:27:21.494Z,99841
2017-12-30T07:29:49.547Z,99851
2017-12-30T07:32:17.665Z,99839
2017-12-30T07:34:45.728Z,99848
2017-12-30T07:37:13.794Z,99844
2017-12-30T07:39:41.862Z,99849
2017-12-30T07:42:09.932Z,99845
2017-12-30T07:44:38.634Z,99851
2017-12-30T07:47:06.694Z,99842
2017-12-30T07:49:34.757Z,99837
2017-12-30T07:52:02.821Z,99835
2017-12-30T07:54:30.884Z,99832
2017-12-30T07:56:58.949Z,99831
2017-12-30T07:59:27.068Z,99831
2017-12-30T08:01:55.871Z,99826
2017-12-30T08:04:23.938Z,99835
2017-12-30T08:06:52.020Z,99820
2017-12-30T08:09:20.842Z,99823
2017-12-30T08:11:48.914Z,99830
2017-12-30T08:14:16.974Z,99826
2017-12-30T08:16:45.525Z,99824
2017-12-30T08:19:13.578Z,99813
2017-12-30T08:21:41.629Z,99821
2017-12-30T08:24:09.714Z,99821
2017-12-30T08:26:37.776Z,99817
2017-12-30T08:29:05.839Z,99818
2017-12-30T08:31:33.909Z,99820
2017-12-30T08:34:01.961Z,99812
2017-12-30T08:36:30.036Z,99810
2017-12-30T08:38:58.097Z,99818
2017-12-30T08:41:26.156Z,99817
2017-12-30T08:43:54.209Z,99826
2017-12-30T08:46:23.057Z,99811
2017-12-30T08:48:51.104Z,99811
2017-12-30T08:51:19.202Z,99812
2017-12-30T08:53:47.273Z,99800
2017-12-30T08:56:15.335Z,99810
2017-12-30T08:58:43.397Z,99804
2017-12-30T09:01:11.479Z,99800
2017-12-30T09:03:39.670Z,99793
2017-12-30T09:06:07.734Z,99797
2017-12-30T09:08:35.807Z,99803
2017-12-30T09:11:03.881Z,99801
2017-12-30T09:13:31.942Z,99796
2017-12-30T09:16:00.007Z,99792
2017-12-30T09:18:28.076Z,99789
2017-12-30T09:20:56.153Z,99788
2017-12-30T09:23:24.320Z,99793
2017-12-30T09:25:52.382Z,99797
2017-12-30T09:28:20.457Z,99792
2017-12-30T09:30:48.566Z,99788
2017-12-30T09:33:17.390Z,99783
2017-12-30T09:35:45.456Z,99788
2017-12-30T09:38:13.536Z,99782
2017-12-30T09:40:41.585Z,99777
2017-12-30T09:43:09.638Z,99772
2017-12-30T09:45:38.512Z,99771
2017-12-30T09:48:06.561Z,99763
2017-12-30T09:50:34.632Z,99765
2017-12-30T09:53:02.710Z,99754
2017-12-30T09:55:30.774Z,99760
2017-12-30T09:57:58.851Z,99754
2017-12-30T10:00:26.927Z,99739
2017-12-30T10:02:54.999Z,99744
2017-12-30T10:05:23.496Z,99747
2017-12-30T10:07:52.420Z,99737
2017-12-30T10:10:20.480Z,99735
2017-12-30T10:12:48.538Z,99731
2017-12-30T10:15:17.376Z,99731
2017-12-30T10:17:45.428Z,99718
2017-12-30T10:20:13.596Z,99718
2017-12-30T10:22:41.656Z,99707
2017-12-30T10:25:09.989Z,99707
2017-12-30T10:27:38.078Z,99708
2017-12-30T10:30:06.945Z,99699
2017-12-30T10:32:35.017Z,99705
2017-12-30T10:35:03.080Z,99698
2017-12-30T10:37:31.153Z,99685
2017-12-30T10:39:59.207Z,99673
2017-12-30T10:42:27.299Z,99673
2017-12-30T10:44:55.361Z,99669
2017-12-30T10:47:23.674Z,99669
2017-12-30T10:49:51.802Z,99656
2017-12-30T10:52:20.114Z,99654
2017-12-30T10:54:49.472Z,99651
2017-12-30T10:57:17.543Z,99655
2017-12-30T10:59:45.607Z,99656
2017-12-30T11:02:13.810Z,99644
2017-12-30T11:04:41.869Z,99634
2017-12-30T11:07:09.938Z,99636
2017-12-30T11:09:38.007Z,99622
2017-12-30T11:12:06.807Z,99623
2017-12-30T11:14:34.861Z,99627
2017-12-30T11:17:02.942Z,99627
2017-12-30T11:19:31.011Z,99604
2017-12-30T11:21:59.078Z,99601
2017-12-30T11:24:27.139Z,99597
2017-12-30T11:26:55.213Z,99590
2017-12-30T11:29:23.277Z,99595
2017-12-30T11:31:51.342Z,99590
2017-12-30T11:34:19.419Z,99577
2017-12-30T11:36:47.492Z,99571
2017-12-30T11:39:15.564Z,99575
2017-12-30T11:41:43.625Z,99562
2017-12-30T11:44:11.700Z,99560
2017-12-30T11:46:39.753Z,99569
2017-12-30T11:49:07.819Z,99553
2017-12-30T11:51:35.877Z,99544
2017-12-30T11:54:03.950Z,99527
2017-12-30T11:56:32.062Z,99536
2017-12-30T11:59:00.125Z,99532
2017-12-30T12:01:28.191Z,99520
2017-12-30T12:03:56.263Z,99514
2017-12-30T12:06:24.316Z,99520
2017-12-30T12:08:52.502Z,99504
2017-12-30T12:11:20.609Z,99507
2017-12-30T12:13:48.676Z,99495
2017-12-30T12:16:16.791Z,99492
2017-12-30T12:18:44.883Z,99470
2017-12-30T12:21:13.001Z,99473
2017-12-30T12:23:41.826Z,99472
2017-12-30T12:26:09.902Z,99462
2017-12-30T12:28:37.965Z,99455
2017-12-30T12:31:06.388Z,99455
2017-12-30T12:33:35.114Z,99452
2017-12-30T12:36:03.170Z,99446
2017-12-30T12:38:32.019Z,99449
2017-12-30T12:41:00.519Z,99452
2017-12-30T12:43:28.583Z,99438
2017-12-30T12:45:56.637Z,99432
2017-12-30T12:48:24.728Z,99426
2017-12-30T12:50:52.804Z,99410
2017-12-30T12:53:20.867Z,99418
2017-12-30T12:55:48.921Z,99408
2017-12-30T12:58:17.012Z,99414
2017-12-30T13:00:45.074Z,99409
2017-12-30T13:03:13.146Z,99402
2017-12-30T13:05:41.825Z,99391
2017-12-30T13:08:09.883Z,99388
2017-12-30T13:10:38.186Z,99395
2017-12-30T13:13:07.334Z,99384
2017-12-30T13:15:35.411Z,99385
2017-12-30T13:18:03.479Z,99386
2017-12-30T13:20:31.676Z,99385
2017-12-30T13:22:59.993Z,99384
2017-12-30T13:25:28.820Z,99383
2017-12-30T13:27:56.892Z,99371
2017-12-30T13:30:24.985Z,99368
2017-12-30T13:32:53.230Z,99376
2017-12-30T13:35:21.307Z,99372
2017-12-30T13:37:52.594Z,99371
2017-12-30T13:40:20.958Z,99356
2017-12-30T13:42:49.039Z,99367
2017-12-30T13:45:17.609Z,99344
2017-12-30T13:47:45.677Z,99335
2017-12-30T13:50:13.745Z,99333
2017-12-30T13:52:41.809Z,99349
2017-12-30T13:55:09.977Z,99325
2017-12-30T13:57:38.047Z,99326
2017-12-30T14:00:06.103Z,99327
2017-12-30T14:02:34.179Z,99335
2017-12-30T14:05:02.263Z,99331
2017-12-30T14:07:30.342Z,99350
2017-12-30T14:09:58.423Z,99344
2017-12-30T14:12:26.603Z,99348
2017-12-30T14:14:55.254Z,99349
2017-12-30T14:17:23.346Z,99342
2017-12-30T14:19:52.444Z,99361
2017-12-30T14:22:20.527Z,99335
2017-12-30T14:24:48.695Z,99321
2017-12-30T14:27:16.753Z,99327
2017-12-30T14:29:44.814Z,99305
2017-12-30T14:32:12.888Z,99299
2017-12-30T14:34:40.958Z,99286
2017-12-30T14:37:09.356Z,99279
2017-12-30T14:39:37.432Z,99263
2017-12-30T14:42:05.485Z,99274
2017-12-30T14:44:33.574Z,99272
2017-12-30T14:47:01.640Z,99260
2017-12-30T14:49:29.699Z,99271
2017-12-30T14:51:57.758Z,99254
2017-12-30T14:54:25.813Z,99257
2017-12-30T14:56:54.021Z,99248
2017-12-30T14:59:22.091Z,99259
2017-12-30T15:01:50.183Z,99244
2017-12-30T15:04:19.020Z,99246
2017-12-30T15:06:47.090Z,99242
2017-12-30T15:09:15.259Z,99239
2017-12-30T15:11:43.326Z,99239
2017-12-30T15:14:12.024Z,99223
2017-12-30T15:16:40.539Z,99230
2017-12-30T15:19:08.708Z,99235
2017-12-30T15:21:36.789Z,99241
2017-12-30T15:24:04.855Z,99220
2017-12-30T15:26:32.916Z,99221
2017-12-30T15:29:01.175Z,99220
2017-12-30T15:31:29.341Z,99216
2017-12-30T15:33:57.401Z,99202
2017-12-30T15:36:25.466Z,99197
2017-12-30T15:38:53.531Z,99204
2017-12-30T15:41:21.623Z,99196
2017-12-30T15:43:52.034Z,99180
2017-12-30T15:46:20.130Z,99197
2017-12-30T15:48:48.185Z,99191
2017-12-30T15:51:16.375Z,99180
2017-12-30T15:53:44.451Z,99175
2017-12-30T15:56:12.515Z,99178
2017-12-30T15:58:41.271Z,99176
2017-12-30T16:01:09.345Z,99134
2017-12-30T16:03:37.391Z,99138
2017-12-30T16:06:05.486Z,99144
2017-12-30T16:08:35.026Z,99141
2017-12-30T16:11:03.090Z,99145
2017-12-30T16:13:31.168Z,99146
2017-12-30T16:15:59.222Z,99152
2017-12-30T16:18:27.283Z,99141
2017-12-30T16:20:55.346Z,99129
2017-12-30T16:23:23.421Z,99131
2017-12-30T16:25:51.490Z,99111
2017-12-30T16:28:19.533Z,99109
2017-12-30T16:30:47.599Z,99111
2017-12-30T16:33:15.667Z,99108
2017-12-30T16:35:43.739Z,99116
2017-12-30T16:38:11.821Z,99114
2017-12-30T16:40:40.482Z,99110
2017-12-30T16:43:09.305Z,99111
2017-12-30T16:45:37.711Z,99126
2017-12-30T16:48:05.761Z,99110
2017-12-30T16:50:34.761Z,99105
2017-12-30T16:53:02.815Z,99097
2017-12-30T16:55:30.887Z,99103
2017-12-30T16:57:58.956Z,99100
2017-12-30T17:00:27.031Z,99106
2017-12-30T17:02:55.114Z,99110
2017-12-30T17:05:23.177Z,99101
2017-12-30T17:07:51.244Z,99091
2017-12-30T17:10:19.333Z,99083
2017-12-30T17:12:47.392Z,99092
2017-12-30T17:15:15.480Z,99098
2017-12-30T17:17:43.538Z,99090
2017-12-30T17:20:11.607Z,99088
2017-12-30T17:22:39.661Z,99100
2017-12-30T17:25:07.735Z,99082
2017-12-30T17:27:35.868Z,99075
2017-12-30T17:30:04.710Z,99075
2017-12-30T17:32:33.566Z,99074
2017-12-30T17:35:01.636Z,99057
2017-12-30T17:37:29.702Z,99052
2017-12-30T17:39:57.765Z,99050
2017-12-30T17:42:26.589Z,99063
2017-12-30T17:44:55.556Z,99064
2017-12-30T17:47:23.633Z,99062
2017-12-30T17:49:51.705Z,99065
2017-12-30T17:52:20.322Z,99061
2017-12-30T17:54:48.391Z,99058
2017-12-30T17:57:16.472Z,99055
2017-12-30T17:59:44.545Z,99063
2017-12-30T18:02:12.676Z,99065
2017-12-30T18:04:40.727Z,99061
2017-12-30T18:07:08.799Z,99055
2017-12-30T18:09:36.867Z,99052
2017-12-30T18:12:04.936Z,99048
2017-12-30T18:14:32.997Z,99055
2017-12-30T18:17:01.070Z,99053
2017-12-30T18:19:29.128Z,99052
2017-12-30T18:21:58.663Z,99042
2017-12-30T18:24:26.728Z,99037
2017-12-30T18:26:54.804Z,99042
2017-12-30T18:29:23.627Z,99055
2017-12-30T18:31:51.774Z,99048
2017-12-30T18:34:19.855Z,99047
2017-12-30T18:36:47.910Z,99037
2017-12-30T18:39:16.013Z,99027
2017-12-30T18:41:44.606Z,99063
2017-12-30T18:44:12.884Z,99053
2017-12-30T18:46:40.963Z,99043
2017-12-30T18:49:09.035Z,99052
2017-12-30T18:51:37.106Z,99053
2017-12-30T18:54:05.259Z,99040
2017-12-30T18:56:33.326Z,99052
2017-12-30T18:59:01.847Z,99063
2017-12-30T19:01:31.220Z,99066
2017-12-30T19:03:59.498Z,99043
2017-12-30T19:06:27.551Z,99047
2017-12-30T19:08:55.703Z,99052
2017-12-30T19:11:23.852Z,99068
2017-12-30T19:13:51.912Z,99059
2017-12-30T19:16:20.047Z,99071
2017-12-30T19:18:48.105Z,99049
2017-12-30T19:21:16.183Z,99057
2017-12-30T19:23:44.269Z,99054
2017-12-30T19:26:12.455Z,99047
2017-12-30T19:28:41.299Z,99038
2017-12-30T19:31:09.368Z,99056
2017-12-30T19:33:37.448Z,99051
2017-12-30T19:36:05.509Z,99043
2017-12-30T19:38:33.581Z,99034
2017-12-30T19:41:01.852Z,99031
2017-12-30T19:43:29.928Z,99035
2017-12-30T19:45:59.531Z,99018
2017-12-30T19:48:27.610Z,99016
2017-12-30T19:50:55.698Z,99014
2017-12-30T19:53:23.749Z,99007
2017-12-30T19:55:51.838Z,99023
2017-12-30T19:58:19.916Z,99020
2017-12-30T20:00:47.987Z,99036
2017-12-30T20:03:16.055Z,99019
2017-12-30T20:05:44.127Z,99036
2017-12-30T20:08:12.295Z,99035
2017-12-30T20:10:40.363Z,99049
2017-12-30T20:13:08.436Z,99026
2017-12-30T20:15:36.519Z,99042
2017-12-30T20:18:04.599Z,99037
2017-12-30T20:20:33.428Z,99034
2017-12-30T20:23:01.496Z,99026
2017-12-30T20:25:29.582Z,99028
2017-12-30T20:27:58.429Z,99008
2017-12-30T20:30:26.519Z,99011
2017-12-30T20:32:54.650Z,99020
2017-12-30T20:35:22.818Z,99017
2017-12-30T20:37:51.686Z,99014
2017-12-30T20:40:19.806Z,99014
2017-12-30T20:42:47.892Z,99006
2017-12-30T20:45:15.972Z,99024
2017-12-30T20:47:44.039Z,99012
2017-12-30T20:50:12.115Z,99028
2017-12-30T20:52:40.173Z,99043
2017-12-30T20:55:08.239Z,99038
2017-12-30T20:57:36.285Z,99038
2017-12-30T21:00:05.250Z,99063
2017-12-30T21:02:33.311Z,99024
2017-12-30T21:05:01.377Z,99038
2017-12-30T21:07:29.438Z,99019
2017-12-30T21:09:57.858Z,99011
2017-12-30T21:12:25.957Z,99000
2017-12-30T21:14:54.038Z,99022
2017-12-30T21:17:22.115Z,99006
2017-12-30T21:19:50.175Z,98993
2017-12-30T21:22:18.263Z,99008
2017-12-30T21:24:46.309Z,99030
2017-12-30T21:27:14.490Z,99020
2017-12-30T21:29:43.284Z,99027
2017-12-30T21:32:11.363Z,99022
2017-12-30T21:34:39.419Z,99037
2017-12-30T21:37:07.492Z,99043
2017-12-30T21:39:35.558Z,99040
2017-12-30T21:42:03.631Z,99043
2017-12-30T21:44:31.709Z,99043
2017-12-30T21:46:59.769Z,99050
2017-12-30T21:49:27.830Z,99039
2017-12-30T21:51:56.671Z,99051
2017-12-30T21:54:24.744Z,99039
2017-12-30T21:56:52.826Z,99058
2017-12-30T21:59:21.698Z,99062
2017-12-30T22:01:50.106Z,99070
2017-12-30T22:04:18.253Z,99072
2017-12-30T22:06:46.713Z,99063
2017-12-30T22:09:14.777Z,99075
2017-12-30T22:11:42.872Z,99076
2017-12-30T22:14:10.943Z,99071
2017-12-30T22:16:39.005Z,99078
2017-12-30T22:19:07.089Z,99095
2017-12-30T22:21:35.167Z,99087
2017-12-30T22:24:03.221Z,99090
2017-12-30T22:26:31.293Z,99103
2017-12-30T22:28:59.370Z,99104
2017-12-30T22:31:27.429Z,99125
2017-12-30T22:33:55.495Z,99127
2017-12-30T22:36:23.567Z,99134
2017-12-30T22:38:51.650Z,99124
2017-12-30T22:41:19.731Z,99147
2017-12-30T22:43:47.794Z,99148
2017-12-30T22:46:15.862Z,99160
2017-12-30T22:48:43.946Z,99138
2017-12-30T22:51:12.010Z,99158
2017-12-30T22:53:40.114Z,99166
2017-12-30T22:56:08.958Z,99177
2017-12-30T22:58:37.013Z,99181
2017-12-30T23:01:07.921Z,99201
2017-12-30T23:03:35.973Z,99181
2017-12-30T23:06:04.831Z,99209
2017-12-30T23:08:32.893Z,99208
2017-12-30T23:11:00.963Z,99221
2017-12-30T23:13:29.031Z,99213
2017-12-30T23:15:57.111Z,99204
2017-12-30T23:18:25.196Z,99219
2017-12-30T23:20:53.266Z,99215
2017-12-30T23:23:21.365Z,99227
2017-12-30T23:25:50.443Z,99218
2017-12-30T23:28:18.505Z,99231
2017-12-30T23:30:46.568Z,99245
2017-12-30T23:33:14.646Z,99254
2017-12-30T23:35:42.704Z,99261
2017-12-30T23:38:10.799Z,99252
2017-12-30T23:40:38.857Z,99260
2017-12-30T23:43:06.917Z,99278
2017-12-30T23:45:34.989Z,99289
2017-12-30T23:48:03.237Z,99288
2017-12-30T23:50:31.329Z,99291
2017-12-30T23:52:59.503Z,99297
2017-12-30T23:55:27.690Z,99304
2017-12-30T23:57:55.759Z,99298
